Airfield :
LOGIN :

Register | Disclaimer

   EN    FR    IT 

 










Legend :    VFR   Marginal VFR   IFR   Intensive IFR   Very Intensive IFR
Visi :
Ceiling :
>= 8 km
>= 3000ft
5 to 8 km
1000 to 3000 ft
1500m to 5 km
500 to 1000 ft
800 to 1500m
200 to 500 ft
< 800m
< 200 ft
Symbols :   Thunderstorms  Fog  Heavy snow  Heavy precipitations  Wind > 20 kt
SIGMETs :     Misc.  Thunderstorms  Icing  Turbulence  Mountain Waves  Volcanic Ashes






- Airport Elevation : 1234 ft
- IATA code : LUX


ELLX - Luxembourg Findel

CURRENT METAR :
  • 011350Z 28011KT 260V320 9999 FEW035 SCT050 20/11 Q1011 NOSIG

EXPIRED METARs :
  • 011320Z 26011KT 230V290 9999 FEW035 SCT039 BKN045 20/11 Q1011 NOSIG
  • 011250Z 27012KT 230V300 9999 FEW035 BKN053 19/11 Q1011 NOSIG
  • 011220Z 26010KT 9999 FEW035 SCT050 19/12 Q1011 NOSIG
  • 011150Z 30010KT 280V340 9999 FEW031 SCT050 18/11 Q1012 NOSIG
  • 011120Z 28009KT 9999 FEW028 SCT045 17/10 Q1012 NOSIG

TAF TAF ELLX
Valid from the 01 at 12:00 until the 02 at 18:00 UTC


011100Z 0112/0218 28011KT 9999 SCT040
PROB30
TEMPO 0114/0118 -SHRA FEW035TCU SCT040
BECMG 0121/0124 22006KT
PROB30
TEMPO 0203/0209 3000 -DZ BR BKN008
TEMPO 0210/0218 4500 SHRA SCT030TCU
ATIS : +352 4798 27300
Met : +352 4798 27010 / 27050



MET'MAP, your aeronautical weather chart ! - Copyright ORBIFLY December 2007 - Disclaimer

ORBIFLY MET'MAP TEAM :

Programming & Development : Alexandra Zaïnal
Concept & original design : Baudouin d'Aumeries
Assistance for programming : Marc-Olivier Méhu
Technical & hardware support : Manuel Goepfert

Contact : metmap@orbifly.com




SOURCES & CREDITS :

   NOAA